Impacts METAR Board INFO
IDs:

KDEN - Denver Intl, CO, US

Updated at: 0408 UTC 17 Dec 2017
Potential Impact None Slight Moderate High
Time16/16Z 16/17Z 16/18Z 16/19Z 16/20Z 16/21Z 16/22Z 16/23Z 17/00Z 17/01Z 17/02Z 17/03Z 17/04Z
VIS10 10 10 10 10 10 10 10 10 10 10 10 10
CIG150 220 220 220 220 220 220 220 220 -- 220 150 180
CoverBKNBKNBKNBKNBKNBKNBKNBKNBKNSCTBKNBKNBKN
FltCatVFRVFRVFRVFRVFRVFRVFRVFRVFRVFRVFRVFRVFR
WX--------------------------
WDir50703034008070707060809090
WSpd7 9 12 6 5 8 10 8 9 9 6 10 13
WGst-- 17 -- -- -- 15 -- -- -- -- -- -- --
Raw hourly METARs
KDEN 161553Z 05007KT 10SM BKN150 BKN220 07/M09 A2981 RMK AO2 SLP075 T00671089 $
KDEN 161653Z 07009G17KT 10SM SCT150 BKN220 09/M13 A2984 RMK AO2 SLP078 T00891128 $
KDEN 161753Z 03012KT 10SM SCT140 BKN220 09/M13 A2985 RMK AO2 SLP085 T00891133 10094 20022 51018 $
KDEN 161853Z 34006KT 10SM SCT140 BKN220 08/M11 A2982 RMK AO2 SLP070 T00831106 $
KDEN 161953Z VRB05KT 10SM FEW140 BKN220 10/M12 A2980 RMK AO2 SLP060 T01001122 $
KDEN 162053Z 08008G15KT 10SM FEW100 FEW140 BKN220 10/M12 A2977 RMK AO2 SLP057 T01001117 56023 $
KDEN 162153Z 07010KT 10SM FEW100 FEW140 BKN220 09/M11 A2979 RMK AO2 SLP066 T00891111 $
KDEN 162253Z 07008KT 10SM SCT140 BKN220 07/M11 A2981 RMK AO2 SLP072 T00671106 $
KDEN 162353Z 07009KT 10SM SCT140 BKN220 02/M10 A2982 RMK AO2 SLP092 T00221100 10106 20017 53015 $
KDEN 170053Z 06009KT 10SM FEW140 SCT220 01/M08 A2985 RMK AO2 SLP104 T00061078 $
KDEN 170153Z 08006KT 10SM SCT140 BKN220 M02/M09 A2987 RMK AO2 SLP119 T10221089 $
KDEN 170253Z 09010KT 10SM BKN150 BKN180 M01/M06 A2988 RMK AO2 SLP119 T10111061 51016 $
KDEN 170353Z 09013KT 10SM FEW080 SCT140 BKN180 M01/M05 A2991 RMK AO2 SLP123 T10111050 $